Herbert C Jackson — WL3972 — position and weather

sailwx.info

Track history (hours):
 
Tides and Currents Weather Stations Pressure Air Temp Water Temp Dewpoint Dewpoint Depression Visibility Wind Speed Wind Dir Waves Ship Positions

Herbert C Jackson

Owner: THE INTERLAKE STEAMSHIP COMPANY, Middleburg Heights, OH. More information available from US FCC via Universal Licensing System and Coast Guard Vessel Documentation Center.

Last reported at 2017-Jan-10 18:22 UTC. Time now 2017-Jan-18 14:08 UTC.
Position N 46°44' W 092°05'.

Length 239 m; draft 6.2 m.

Type: Cargo ship. MMSI: 366904930.

Date/timePositionNaut miles runAvg speedWind from/ knotsBaromVisibWave heightAir tempDewpointWater temp
2017-Jan-10 18:22N 46°44' W 092°05'2 5.9
2017-Jan-10 18:00N 46°42' W 092°06'3 5.8 270 / 4992.2 -3.4 1.0
2017-Jan-10 17:33N 46°45' W 092°06'3 6.2
2017-Jan-10 17:00N 46°48' W 092°06'2 5.5 240 / 2994.2 -3.7 0.7
2017-Jan-10 16:33N 46°46' W 092°06'2 4.2
2017-Jan-10 16:00N 46°48' W 092°06'1 3.0 280 / 4995.6 -3.6 0.6
2017-Jan-10 15:33N 46°47' W 092°06'4 7.1
2017-Jan-10 15:00N 46°48' W 092°00'715.7 250 / 5995.9 -2.9 1.2
2017-Jan-10 14:33N 46°51' W 091°51'712.2
2017-Jan-10 14:00N 46°54' W 091°42'1413.7 150 / 16997.0 -2.3 2.7
2017-Jan-10 13:00N 47°00' W 091°24'1212.3 160 / 19998.3 -2.2 3.1
2017-Jan-10 12:00N 47°00' W 091°06'1413.7 150 / 20999.3 -2.5 2.4
2017-Jan-10 11:00N 47°06' W 090°48'1413.6 160 / 221000.3 -2.6 1.1
2017-Jan-10 10:00N 47°12' W 090°30'1212.2 160 / 181002.4 -2.1 2.1
2017-Jan-10 09:00N 47°12' W 090°12'1413.6 170 / 201004.4 -2.2 3.5
2017-Jan-10 08:00N 47°18' W 089°54'1212.2 170 / 231005.4 -2.4 3.7
2017-Jan-10 07:00N 47°18' W 089°36'1717.3 160 / 231007.1 -4.0 3.8
2017-Jan-10 06:00N 47°24' W 089°12'1212.2 140 / 201008.8 -4.7 3.7
2017-Jan-10 05:00N 47°24' W 088°54'1413.6 160 / 201011.2 -5.8 3.5
2017-Jan-10 04:00N 47°30' W 088°36'1212.2 180 / 341012.9 -5.3 3.8
2017-Jan-10 03:00N 47°30' W 088°18'1212.2 150 / 181014.2 -5.5 3.6
2017-Jan-10 02:00N 47°30' W 088°00'1212.2 150 / 171015.2 -5.1 2.7
2017-Jan-10 01:00N 47°30' W 087°42'1413.6 160 / 201016.9 -4.7 1.5
2017-Jan-10 00:00N 47°24' W 087°24'1413.6 170 / 161017.9 -5.3 3.7
2017-Jan-09 23:00N 47°18' W 087°06'1212.2 180 / 81019.3 -6.2 3.9
2017-Jan-09 22:00N 47°18' W 086°48'7011.6 220 / 101019.6 -6.1 3.9
2017-Jan-09 16:00N 46°54' W 085°12'1010.2 290 / 261018.3 -4.8 1.9
2017-Jan-09 15:00N 46°48' W 085°00'1514.6 220 / 281018.6 -8.5 1.1
2017-Jan-09 14:00N 46°36' W 084°48'1010.2 240 / 281018.6 -8.0 2.1
2017-Jan-09 13:00N 46°30' W 084°36'8 8.3 240 / 211018.6 -8.6 0.8
2017-Jan-09 12:00N 46°30' W 084°24'4 4.1 250 / 151018.3 -7.8 0.6
2017-Jan-09 11:00N 46°30' W 084°18'6 6.0 230 / 71018.8 -7.4 0.5
2017-Jan-09 10:00N 46°24' W 084°18'1010.2 180 / 141019.1 -7.3 0.5
2017-Jan-09 09:00N 46°18' W 084°06'6 6.0 190 / 151020.4 -7.4 0.5
2017-Jan-09 08:00N 46°12' W 084°06'7 7.3 170 / 161022.5 -7.5 0.4
2017-Jan-09 07:00N 46°06' W 084°00'1312.7 180 / 161024.2 -7.5 0.5
2017-Jan-09 06:00N 45°54' W 083°54'1514.6 210 / 241025.9 -7.5 1.6
2017-Jan-09 05:00N 45°42' W 083°42'7 7.3 210 / 231027.2 -7.5 3.0
2017-Jan-09 04:00N 45°36' W 083°36'1514.7 200 / 231028.2 -7.7 3.1
2017-Jan-09 03:00N 45°24' W 083°24'1514.7 210 / 301029.6 -7.8 3.0
2017-Jan-09 02:00N 45°12' W 083°12'7 7.3 230 / 261030.3 -7.3 2.7
2017-Jan-09 01:00N 45°06' W 083°06'1818.0 240 / 261032.0 -7.2 2.6
2017-Jan-09 00:00N 44°48' W 083°06'1212.0 230 / 201032.6 -7.4 1.4
2017-Jan-08 23:00N 44°36' W 083°06'1212.0 240 / 191033.0 -7.8 1.4
2017-Jan-08 22:00N 44°24' W 083°06'1010.5 230 / 231032.6 -7.7 2.3
2017-Jan-08 21:00N 44°18' W 082°54'1514.8 250 / 191032.6 -8.0 3.5
2017-Jan-08 20:00N 44°06' W 082°42'7 7.4 290 / 201032.0 -8.3 3.1
2017-Jan-08 19:00N 44°00' W 082°36'1312.8 290 / 281032.3 -8.9 2.6
2017-Jan-08 18:00N 43°48' W 082°30'1212.0 280 / 271032.6 -9.8 0.4
2017-Jan-08 17:00N 43°36' W 082°30'1212.0 300 / 281033.0 -10.3 0.4
2017-Jan-08 16:00N 43°24' W 082°30'1312.8 280 / 311033.0 -10.7 0.6
2017-Jan-08 15:00N 43°12' W 082°24'1212.0 280 / 281032.6 -10.8 0.6
2017-Jan-08 14:00N 43°00' W 082°24'1312.8 300 / 131032.3 -12.1 0.9
2017-Jan-08 13:00N 42°48' W 082°30'6 6.0 290 / 101032.3 -12.8 1.0
2017-Jan-08 12:00N 42°42' W 082°30'1312.8 280 / 151031.6 -12.6 1.0
2017-Jan-08 11:00N 42°30' W 082°36'1110.7 300 / 181031.1 -11.9 1.1
2017-Jan-08 10:00N 42°24' W 082°48'1110.7 280 / 221030.8 -11.9 0.4
2017-Jan-08 09:00N 42°18' W 083°00'7 7.5 270 / 151031.1 -12.1 0.3
2017-Jan-08 08:00N 42°12' W 083°06'4 4.4 270 / 141030.8 -12.4 0.5
2017-Jan-08 07:00N 42°12' W 083°12'6 6.0 260 / 101030.1 -12.2 0.6
2017-Jan-08 06:00N 42°06' W 083°12'0 0.0 280 / 101029.7 -11.4 0.6
2017-Jan-08 05:00N 42°06' W 083°12'0 0.0 290 / 101029.7 -11.3 0.9
2017-Jan-08 04:00N 42°06' W 083°12'0 0.0 280 / 121029.4 -10.8 0.7
2017-Jan-08 03:00N 42°06' W 083°12'0 0.0 280 / 151029.1 -10.3 0.9
2017-Jan-08 02:00N 42°06' W 083°12'0 0.0 260 / 111028.7 -10.0 0.8
2017-Jan-08 01:00N 42°06' W 083°12'0 0.0 270 / 111029.1 -9.7 0.8
2017-Jan-08 00:00N 42°06' W 083°12'6 6.0 260 / 101028.7 -9.5 0.7
2017-Jan-07 23:00N 42°12' W 083°12'4 4.4 260 / 101027.7 -9.2 0.7
2017-Jan-07 22:00N 42°12' W 083°06'7 7.5 250 / 121027.7 -9.3 0.6
2017-Jan-07 21:00N 42°18' W 083°00'1110.7 270 / 151026.7 -9.2 0.4
2017-Jan-07 20:00N 42°24' W 082°48'7 7.5 250 / 181025.7 -10.1 0.5
2017-Jan-07 19:00N 42°30' W 082°42'1110.7 230 / 321026.0 -10.5 1.5
2017-Jan-07 18:00N 42°36' W 082°30'1212.0 240 / 111027.2 -11.0 1.2
2017-Jan-07 17:00N 42°48' W 082°30'1312.8 260 / 121027.6 -11.5 1.3
2017-Jan-07 16:00N 43°00' W 082°24'6 6.0 230 / 111027.9 -11.6 1.5
2017-Jan-07 15:00N 43°06' W 082°24'0 0.0 240 / 131027.9 -11.8 2.3
2017-Jan-07 14:00N 43°06' W 082°24'0 0.0 250 / 141027.6 -12.0 2.3
2017-Jan-07 13:00N 43°06' W 082°24'0 0.0 240 / 161027.2 -12.5 2.4
2017-Jan-07 12:00N 43°06' W 082°24'0 0.0 260 / 141026.9 -12.4 2.4
2017-Jan-07 11:00N 43°06' W 082°24'0 0.0 260 / 161026.5 -12.4 2.4
2017-Jan-07 10:00N 43°06' W 082°24'0 0.0 250 / 181026.5 -12.4 2.5
2017-Jan-07 09:00N 43°06' W 082°24'0 0.0 250 / 171026.5 -12.2 2.3
2017-Jan-07 08:00N 43°06' W 082°24'0 0.0 250 / 171026.5 -12.2 2.4
2017-Jan-07 07:00N 43°06' W 082°24'0 0.0 240 / 141025.9 -11.9 2.4
2017-Jan-07 06:00N 43°06' W 082°24'0 0.0 240 / 151025.5 -11.4 2.4
2017-Jan-07 05:00N 43°06' W 082°24'0 0.0 250 / 171025.5 -11.3 2.5
2017-Jan-07 04:00N 43°06' W 082°24'0 0.0 260 / 171024.5 -10.9 2.5
2017-Jan-07 03:00N 43°06' W 082°24'0 0.0 250 / 191024.2 -10.8 2.5
2017-Jan-07 02:00N 43°06' W 082°24'0 0.0 230 / 171024.2 -10.4 2.5
2017-Jan-07 01:00N 43°06' W 082°24'0 0.0 250 / 171024.2 -10.5 2.6
2017-Jan-07 00:00N 43°06' W 082°24'0 0.0 250 / 141023.8 -10.6 2.6
2017-Jan-06 23:00N 43°06' W 082°24'0 0.0 230 / 141023.2 -10.2 2.6
2017-Jan-06 22:00N 43°06' W 082°24'0 0.0 260 / 141022.1 -10.1 2.5
2017-Jan-06 21:00N 43°06' W 082°24'1212.0 270 / 111021.8 -10.4 2.4
2017-Jan-06 20:00N 43°18' W 082°24'1212.0 220 / 141020.1 -10.7 2.2
2017-Jan-06 19:00N 43°30' W 082°24'1312.8 270 / 161019.1 -10.3 1.2
2017-Jan-06 18:00N 43°42' W 082°30'1212.0 260 / 141018.8 -10.8 2.1
2017-Jan-06 17:00N 43°54' W 082°30'1312.8 240 / 201018.1 -10.7 3.6
2017-Jan-06 16:00N 44°06' W 082°36'1312.7 230 / 221016.7 -10.2 3.0
2017-Jan-06 15:00N 44°18' W 082°42'1312.7 260 / 181016.7 -9.7 3.4
2017-Jan-06 14:00N 44°30' W 082°48'1818.5 280 / 201015.7 -9.5 3.3
2017-Jan-06 13:00N 44°48' W 082°54'1312.7 270 / 201014.7 -9.5 3.0
2017-Jan-06 12:00N 45°00' W 083°00'1312.7 280 / 231014.0 -10.1 2.3
2017-Jan-06 11:00N 45°12' W 083°06'1514.7 270 / 231013.0 -9.6 3.7
2017-Jan-06 10:00N 45°24' W 083°18'1010.3 250 / 201012.0 -10.0 3.3
2017-Jan-06 09:00N 45°30' W 083°30'2713.5 280 / 231012.0 -8.6 3.4
2017-Jan-06 07:00N 45°54' W 083°48'1514.6 340 / 161011.3 -10.9 2.1
2017-Jan-06 06:00N 46°06' W 084°00'7 7.3 350 / 111011.0 -13.0 0.3
2017-Jan-06 05:00N 46°12' W 084°06'7 7.3 310 / 101010.6 -13.6 0.4
2017-Jan-06 04:00N 46°18' W 084°12'6 6.0 220 / 71009.9 -14.4 0.8
2017-Jan-06 03:00N 46°24' W 084°12'7 7.3 340 / 111008.6 -14.1 1.0
2017-Jan-06 02:00N 46°30' W 084°18'4 4.1 230 / 91008.9 -12.1 1.4
2017-Jan-06 01:00N 46°30' W 084°24'8 8.3 220 / 181008.5 -11.1 1.2
2017-Jan-06 00:00N 46°30' W 084°36'1010.2 240 / 191008.1 -11.9 1.8
2017-Jan-05 23:00N 46°36' W 084°48'1312.7 240 / 241006.4 -10.2 2.8
2017-Jan-05 22:00N 46°48' W 084°54'1312.7 270 / 241006.8 -8.9 2.2
2017-Jan-05 21:00N 47°00' W 085°00'1312.7 290 / 181006.8 -9.2 3.9
2017-Jan-05 20:00N 47°12' W 085°06'1818.5 340 / 131006.4 -10.4 4.5
2017-Jan-05 19:00N 47°30' W 085°12'7011.6 340 / 131006.4 -11.7 4.6
2017-Jan-05 13:00N 48°24' W 086°18'1414.4 340 / 131007.8 -17.2 4.4
2017-Jan-05 12:00N 48°36' W 086°30'10 9.9 290 / 111008.1 -19.7 4.2
2017-Jan-05 11:00N 48°42' W 086°42'1211.9 290 / 111008.1 -18.9 4.2
2017-Jan-05 10:00N 48°42' W 087°00'8 7.9 290 / 111008.5 -18.9 4.2
2017-Jan-05 09:00N 48°42' W 087°12'1211.9 270 / 111008.1 -17.8 4.3
2017-Jan-05 08:00N 48°42' W 087°30'1211.9 270 / 121008.8 -18.4 4.3
2017-Jan-05 07:00N 48°42' W 087°48'10 9.9 310 / 301008.8 -18.6 4.1
2017-Jan-05 06:00N 48°36' W 088°00'2010.0 330 / 201009.5 -19.0 4.0
2017-Jan-05 04:00N 48°24' W 088°24'1313.4 320 / 281009.8 -18.4 4.1
2017-Jan-05 03:00N 48°18' W 088°42'1010.0 320 / 271011.2 -18.0 4.0
2017-Jan-05 02:00N 48°12' W 088°54'1010.0 310 / 261012.2 -18.5 4.0
2017-Jan-05 01:00N 48°06' W 089°06'1010.0 320 / 331012.9 -20.0 4.0
2017-Jan-05 00:00N 48°00' W 089°18'1010.0 320 / 321013.2 -19.6 3.8
2017-Jan-04 23:00N 47°54' W 089°30'1313.5 320 / 261012.9 -18.1 4.0
2017-Jan-04 22:00N 47°48' W 089°48'1413.5 330 / 231012.9 -17.1 4.1
2017-Jan-04 21:00N 47°42' W 090°06'1413.5 310 / 201013.2 -16.7 4.1
2017-Jan-04 20:00N 47°36' W 090°24'1413.5 320 / 241012.9 -16.6 4.1
2017-Jan-04 19:00N 47°30' W 090°42'1010.1 300 / 231013.2 -17.4 3.9
2017-Jan-04 18:00N 47°24' W 090°54'1717.1 310 / 151014.6 -19.4 3.7
2017-Jan-04 17:00N 47°12' W 091°12'1010.1 270 / 161015.9 -20.7 3.7
2017-Jan-04 16:00N 47°06' W 091°24'1314.9 320 / 141016.9 -22.2 3.6
2017-Jan-04 15:07N 46°58' W 091°39'325.8
2017-Jan-04 15:00N 47°00' W 091°42'716.6 300 / 211017.6 -21.8 3.4
2017-Jan-04 14:32N 46°54' W 091°48'712.8
2017-Jan-04 14:00N 46°48' W 091°54'511.7 290 / 281016.9 -21.7 2.3
2017-Jan-04 13:33N 46°48' W 092°02'3 5.5
2017-Jan-04 13:00N 46°48' W 092°06'3 7.9 270 / 91017.9 -21.9 0.7
2017-Jan-04 12:33N 46°45' W 092°07'3 4.7
2017-Jan-04 12:00N 46°42' W 092°06'3 3.9 220 / 71018.3 -21.3 1.1
2017-Jan-04 11:19N 46°45' W 092°07'3 8.4
2017-Jan-04 11:00N 46°42' W 092°06'3 5.5 270 / 111017.6 -21.2 1.0
2017-Jan-04 10:31N 46°45' W 092°07'3 5.1
2017-Jan-04 10:00N 46°42' W 092°06'3 3.9 260 / 111017.6 -20.4 0.8
2017-Jan-04 09:19N 46°45' W 092°07'3 8.3
2017-Jan-04 09:00N 46°42' W 092°06'3 4.2 260 / 101017.6 -19.5 1.2
2017-Jan-04 08:22N 46°45' W 092°07'3 7.2
2017-Jan-04 08:00N 46°42' W 092°06'3 4.6 270 / 121017.3 -19.0 1.1
2017-Jan-04 07:25N 46°45' W 092°07'3 6.3
2017-Jan-04 07:00N 46°42' W 092°06'3 5.3 250 / 131016.9 -18.5 0.9
2017-Jan-04 06:25N 46°45' W 092°06'3 7.0
2017-Jan-04 06:00N 46°48' W 092°06'3 4.4 260 / 91016.6 -17.6 1.2
2017-Jan-04 05:25N 46°45' W 092°06'3 6.1
2017-Jan-04 05:00N 46°48' W 092°06'3 4.8 240 / 151015.9 -16.7 1.6
2017-Jan-04 04:28N 46°45' W 092°06'3 5.4
2017-Jan-04 04:00N 46°48' W 092°06'2 5.0 250 / 111015.9 -16.2 1.3
2017-Jan-04 03:33N 46°46' W 092°06'5 8.2
2017-Jan-04 03:00N 46°48' W 092°00'4 8.1 280 / 201014.2 -15.1 2.1
2017-Jan-04 02:33N 46°50' W 091°56'711.7
2017-Jan-04 02:00N 46°54' W 091°48'1010.2 280 / 201012.9 -12.8 3.5
2017-Jan-04 01:00N 47°00' W 091°36'1717.2 290 / 221011.2 -11.7 3.7
2017-Jan-04 00:00N 47°12' W 091°18'1010.1 270 / 241010.5 -11.2 4.0
2017-Jan-03 23:00N 47°18' W 091°06'1717.1 280 / 241009.5 -9.4 4.0
2017-Jan-03 22:00N 47°30' W 090°48'1010.1 280 / 231007.1 -6.8 4.0
2017-Jan-03 21:00N 47°36' W 090°36'1413.5 280 / 261005.8 -4.5 4.3
2017-Jan-03 20:00N 47°42' W 090°18'1212.1 280 / 171006.1 -1.1 4.2
2017-Jan-03 19:00N 47°42' W 090°00'1413.5 040 / 161007.1 -2.1 4.4
2017-Jan-03 18:00N 47°48' W 089°42'1413.5 020 / 221007.1 2.2 -1.0 4.1
2017-Jan-03 17:00N 47°42' W 089°24'1212.1 180 / 161008.8 0.9 4.1
2017-Jan-03 16:00N 47°42' W 089°06'1717.2 150 / 151009.8 1.3 4.0
2017-Jan-03 15:00N 47°36' W 088°42'1212.1 150 / 121010.5 1.8 4.0
2017-Jan-03 14:00N 47°36' W 088°24'1212.1 120 / 91010.8 1.8 4.0
2017-Jan-03 13:00N 47°36' W 088°06'1413.5 100 / 141011.2 1.7 4.0
2017-Jan-03 12:00N 47°30' W 087°48'1413.6 160 / 81013.2 1.6 2.0
2017-Jan-03 11:00N 47°24' W 087°30'1212.2 110 / 131013.2 1.9 3.7
2017-Jan-03 10:00N 47°24' W 087°12'1413.6 100 / 141014.2 1.8 4.2
2017-Jan-03 09:00N 47°18' W 086°54'1413.6 110 / 181014.9 1.6 4.2
2017-Jan-03 08:00N 47°12' W 086°36'5213.1 100 / 181015.9 1.4 4.2
2017-Jan-03 04:00N 46°54' W 085°24'1413.7 090 / 191019.0 0.6 3.0
2017-Jan-03 03:00N 46°48' W 085°06'1413.7 080 / 161020.3 0.8 2.4
2017-Jan-03 02:00N 46°42' W 084°48'1514.6 060 / 131020.3 0.8 3.3
2017-Jan-03 01:00N 46°30' W 084°36'8 8.3 100 / 121020.7 0.8 2.9
2017-Jan-03 00:00N 46°30' W 084°24'4 4.1 080 / 131021.0 0.7 2.3
2017-Jan-02 23:00N 46°30' W 084°18'0 0.0 080 / 71022.5 1.0 2.0
2017-Jan-02 22:00N 46°30' W 084°18'7 7.3 070 / 71022.8 1.0 2.1
2017-Jan-02 21:00N 46°24' W 084°12'7 7.3 100 / 111022.8 1.0 1.9
2017-Jan-02 20:00N 46°18' W 084°06'1312.7 080 / 91023.5 0.8 1.5
2017-Jan-02 19:00N 46°06' W 084°00'7 7.3 080 / 201023.5 0.5 0.7
2017-Jan-02 18:00N 46°00' W 083°54'1312.7 060 / 141023.2 0.5 0.7
2017-Jan-02 17:00N 45°48' W 083°48'1514.6 070 / 181024.5 1.5 3.5
2017-Jan-02 16:00N 45°36' W 083°36'1514.7 060 / 201025.2 1.4 3.6
2017-Jan-02 15:00N 45°24' W 083°24'1010.3 080 / 161024.8 2.9 3.5
2017-Jan-02 14:00N 45°18' W 083°12'1312.7 100 / 141025.5 3.1 3.0
2017-Jan-02 13:00N 45°06' W 083°06'5714.2 090 / 101024.8 2.9 2.7
2017-Jan-02 09:00N 44°12' W 082°42'1312.8 200 / 101024.5 1.7 4.0
2017-Jan-02 08:00N 44°00' W 082°36'1312.8 190 / 81024.8 1.2 3.1
2017-Jan-02 07:00N 43°48' W 082°30'1212.0 220 / 41023.8 1.0 1.6
2017-Jan-02 06:00N 43°36' W 082°30'1212.0 220 / 41023.8 1.0 1.8
2017-Jan-02 05:00N 43°24' W 082°30'1918.5 230 / 81024.2 1.3 2.7
2017-Jan-02 04:00N 43°06' W 082°24'6 6.0 180 / 61023.8 1.3 3.3
2017-Jan-02 03:00N 43°00' W 082°24'1312.8 030 / 21023.5 0.1 3.2
2017-Jan-02 02:00N 42°48' W 082°30'6 6.0 170 / 21024.2 -0.4 3.2
2017-Jan-02 01:00N 42°42' W 082°30'1312.8 120 / 11023.8 -0.4 3.1
2017-Jan-02 00:00N 42°30' W 082°36'1110.7 150 / 131023.3 1.7 3.1
2017-Jan-01 23:00N 42°24' W 082°48'1110.7 140 / 71022.3 1.6 2.4
2017-Jan-01 22:00N 42°18' W 083°00'7 7.5 130 / 41021.9 2.4 1.2
2017-Jan-01 21:00N 42°12' W 083°06'4 4.4 160 / 111021.9 2.0 2.2
2017-Jan-01 20:00N 42°12' W 083°12'6 6.0 170 / 111021.3 2.5 2.3
2017-Jan-01 19:00N 42°06' W 083°12'0 0.0 160 / 171020.6 1.4 2.4
2017-Jan-01 18:00N 42°06' W 083°12'0 0.0 150 / 111019.9 1.6 2.4
2017-Jan-01 17:00N 42°06' W 083°12'0 0.0 250 / 61020.9 2.2 2.3
2017-Jan-01 16:00N 42°06' W 083°12'0 0.0 180 / 41021.9 2.0 2.3
2017-Jan-01 15:00N 42°06' W 083°12'0 0.0 240 / 61021.6 -0.0 2.3
2017-Jan-01 14:00N 42°06' W 083°12'0 0.0 210 / 61020.9 -1.7 2.3
2017-Jan-01 13:00N 42°06' W 083°12'0 0.0 190 / 31019.9 -2.1 2.3
2017-Jan-01 12:00N 42°06' W 083°12'7 7.5 210 / 81018.6 -1.9 2.1
2017-Jan-01 11:00N 42°12' W 083°06'6 6.0 200 / 71017.5 -2.3 2.3
2017-Jan-01 10:00N 42°18' W 083°06'1110.7 220 / 111016.5 -0.7 1.8
2017-Jan-01 09:00N 42°24' W 082°54'1110.7 230 / 61015.5 -1.2 2.4
2017-Jan-01 08:00N 42°30' W 082°42'1110.7 260 / 181014.2 -0.4 2.9
2017-Jan-01 07:00N 42°36' W 082°30'1212.0 260 / 91014.3 -0.3 3.2
2017-Jan-01 06:00N 42°48' W 082°30'6 6.0 310 / 121013.0 -0.2 3.1
2017-Jan-01 05:00N 42°54' W 082°30'1312.8 280 / 81011.3 -0.0 3.4
2017-Jan-01 04:00N 43°06' W 082°24'1212.0 280 / 171009.6 0.3 3.5
2017-Jan-01 03:00N 43°18' W 082°24'1312.8 270 / 201008.3 0.4 3.4
2017-Jan-01 02:00N 43°30' W 082°30'1212.0 270 / 241006.6 0.4 2.4
2017-Jan-01 01:00N 43°42' W 082°30'1312.8 260 / 251004.2 0.4 1.9
2017-Jan-01 00:00N 43°54' W 082°36'1514.8 260 / 231002.5 1.0 3.5
2016-Dec-31 23:00N 44°06' W 082°48'1010.5 260 / 281001.5 1.5 4.0
2016-Dec-31 22:00N 44°12' W 083°00'1514.8 270 / 261000.1 1.5 4.1
2016-Dec-31 21:00N 44°24' W 083°12'1212.0 260 / 25997.4 1.7 3.8
2016-Dec-31 20:00N 44°36' W 083°12'1312.7 240 / 16996.7 1.6 3.1
2016-Dec-31 19:00N 44°48' W 083°06'   220 / 11996.1 0.9 2.9
Track history (hours):
 
Tides and Currents Weather Stations Pressure Air Temp Water Temp Dewpoint Dewpoint Depression Visibility Wind Speed Wind Dir Waves Ship Positions

Herbert C Jackson

Owner: THE INTERLAKE STEAMSHIP COMPANY, Middleburg Heights, OH. More information available from US FCC via Universal Licensing System and Coast Guard Vessel Documentation Center.

Last reported at 2017-Jan-10 18:22 UTC. Time now 2017-Jan-18 14:08 UTC.
Position N 46°44' W 092°05'.

Length 239 m; draft 6.2 m.

Type: Cargo ship. MMSI: 366904930.

Date/timePositionNaut miles runAvg speedWind from/ knotsBaromVisibWave heightAir tempDewpointWater temp
2017-Jan-10 18:22N 46°44' W 092°05'2 5.9
2017-Jan-10 18:00N 46°42' W 092°06'3 5.8 270 / 4992.2 -3.4 1.0
2017-Jan-10 17:33N 46°45' W 092°06'3 6.2
2017-Jan-10 17:00N 46°48' W 092°06'2 5.5 240 / 2994.2 -3.7 0.7
2017-Jan-10 16:33N 46°46' W 092°06'2 4.2
2017-Jan-10 16:00N 46°48' W 092°06'1 3.0 280 / 4995.6 -3.6 0.6
2017-Jan-10 15:33N 46°47' W 092°06'4 7.1
2017-Jan-10 15:00N 46°48' W 092°00'715.7 250 / 5995.9 -2.9 1.2
2017-Jan-10 14:33N 46°51' W 091°51'712.2
2017-Jan-10 14:00N 46°54' W 091°42'1413.7 150 / 16997.0 -2.3 2.7
2017-Jan-10 13:00N 47°00' W 091°24'1212.3 160 / 19998.3 -2.2 3.1
2017-Jan-10 12:00N 47°00' W 091°06'1413.7 150 / 20999.3 -2.5 2.4
2017-Jan-10 11:00N 47°06' W 090°48'1413.6 160 / 221000.3 -2.6 1.1
2017-Jan-10 10:00N 47°12' W 090°30'1212.2 160 / 181002.4 -2.1 2.1
2017-Jan-10 09:00N 47°12' W 090°12'1413.6 170 / 201004.4 -2.2 3.5
2017-Jan-10 08:00N 47°18' W 089°54'1212.2 170 / 231005.4 -2.4 3.7
2017-Jan-10 07:00N 47°18' W 089°36'1717.3 160 / 231007.1 -4.0 3.8
2017-Jan-10 06:00N 47°24' W 089°12'1212.2 140 / 201008.8 -4.7 3.7
2017-Jan-10 05:00N 47°24' W 088°54'1413.6 160 / 201011.2 -5.8 3.5
2017-Jan-10 04:00N 47°30' W 088°36'1212.2 180 / 341012.9 -5.3 3.8
2017-Jan-10 03:00N 47°30' W 088°18'1212.2 150 / 181014.2 -5.5 3.6
2017-Jan-10 02:00N 47°30' W 088°00'1212.2 150 / 171015.2 -5.1 2.7
2017-Jan-10 01:00N 47°30' W 087°42'1413.6 160 / 201016.9 -4.7 1.5
2017-Jan-10 00:00N 47°24' W 087°24'1413.6 170 / 161017.9 -5.3 3.7
2017-Jan-09 23:00N 47°18' W 087°06'1212.2 180 / 81019.3 -6.2 3.9
2017-Jan-09 22:00N 47°18' W 086°48'7011.6 220 / 101019.6 -6.1 3.9
2017-Jan-09 16:00N 46°54' W 085°12'1010.2 290 / 261018.3 -4.8 1.9
2017-Jan-09 15:00N 46°48' W 085°00'1514.6 220 / 281018.6 -8.5 1.1
2017-Jan-09 14:00N 46°36' W 084°48'1010.2 240 / 281018.6 -8.0 2.1
2017-Jan-09 13:00N 46°30' W 084°36'8 8.3 240 / 211018.6 -8.6 0.8
2017-Jan-09 12:00N 46°30' W 084°24'4 4.1 250 / 151018.3 -7.8 0.6
2017-Jan-09 11:00N 46°30' W 084°18'6 6.0 230 / 71018.8 -7.4 0.5
2017-Jan-09 10:00N 46°24' W 084°18'1010.2 180 / 141019.1 -7.3 0.5
2017-Jan-09 09:00N 46°18' W 084°06'6 6.0 190 / 151020.4 -7.4 0.5
2017-Jan-09 08:00N 46°12' W 084°06'7 7.3 170 / 161022.5 -7.5 0.4
2017-Jan-09 07:00N 46°06' W 084°00'1312.7 180 / 161024.2 -7.5 0.5
2017-Jan-09 06:00N 45°54' W 083°54'1514.6 210 / 241025.9 -7.5 1.6
2017-Jan-09 05:00N 45°42' W 083°42'7 7.3 210 / 231027.2 -7.5 3.0
2017-Jan-09 04:00N 45°36' W 083°36'1514.7 200 / 231028.2 -7.7 3.1
2017-Jan-09 03:00N 45°24' W 083°24'1514.7 210 / 301029.6 -7.8 3.0
2017-Jan-09 02:00N 45°12' W 083°12'7 7.3 230 / 261030.3 -7.3 2.7
2017-Jan-09 01:00N 45°06' W 083°06'1818.0 240 / 261032.0 -7.2 2.6
2017-Jan-09 00:00N 44°48' W 083°06'1212.0 230 / 201032.6 -7.4 1.4
2017-Jan-08 23:00N 44°36' W 083°06'1212.0 240 / 191033.0 -7.8 1.4
2017-Jan-08 22:00N 44°24' W 083°06'1010.5 230 / 231032.6 -7.7 2.3
2017-Jan-08 21:00N 44°18' W 082°54'1514.8 250 / 191032.6 -8.0 3.5
2017-Jan-08 20:00N 44°06' W 082°42'7 7.4 290 / 201032.0 -8.3 3.1
2017-Jan-08 19:00N 44°00' W 082°36'1312.8 290 / 281032.3 -8.9 2.6
2017-Jan-08 18:00N 43°48' W 082°30'1212.0 280 / 271032.6 -9.8 0.4
2017-Jan-08 17:00N 43°36' W 082°30'1212.0 300 / 281033.0 -10.3 0.4
2017-Jan-08 16:00N 43°24' W 082°30'1312.8 280 / 311033.0 -10.7 0.6
2017-Jan-08 15:00N 43°12' W 082°24'1212.0 280 / 281032.6 -10.8 0.6
2017-Jan-08 14:00N 43°00' W 082°24'1312.8 300 / 131032.3 -12.1 0.9
2017-Jan-08 13:00N 42°48' W 082°30'6 6.0 290 / 101032.3 -12.8 1.0
2017-Jan-08 12:00N 42°42' W 082°30'1312.8 280 / 151031.6 -12.6 1.0
2017-Jan-08 11:00N 42°30' W 082°36'1110.7 300 / 181031.1 -11.9 1.1
2017-Jan-08 10:00N 42°24' W 082°48'1110.7 280 / 221030.8 -11.9 0.4
2017-Jan-08 09:00N 42°18' W 083°00'7 7.5 270 / 151031.1 -12.1 0.3
2017-Jan-08 08:00N 42°12' W 083°06'4 4.4 270 / 141030.8 -12.4 0.5
2017-Jan-08 07:00N 42°12' W 083°12'6 6.0 260 / 101030.1 -12.2 0.6
2017-Jan-08 06:00N 42°06' W 083°12'0 0.0 280 / 101029.7 -11.4 0.6
2017-Jan-08 05:00N 42°06' W 083°12'0 0.0 290 / 101029.7 -11.3 0.9
2017-Jan-08 04:00N 42°06' W 083°12'0 0.0 280 / 121029.4 -10.8 0.7
2017-Jan-08 03:00N 42°06' W 083°12'0 0.0 280 / 151029.1 -10.3 0.9
2017-Jan-08 02:00N 42°06' W 083°12'0 0.0 260 / 111028.7 -10.0 0.8
2017-Jan-08 01:00N 42°06' W 083°12'0 0.0 270 / 111029.1 -9.7 0.8
2017-Jan-08 00:00N 42°06' W 083°12'6 6.0 260 / 101028.7 -9.5 0.7
2017-Jan-07 23:00N 42°12' W 083°12'4 4.4 260 / 101027.7 -9.2 0.7
2017-Jan-07 22:00N 42°12' W 083°06'7 7.5 250 / 121027.7 -9.3 0.6
2017-Jan-07 21:00N 42°18' W 083°00'1110.7 270 / 151026.7 -9.2 0.4
2017-Jan-07 20:00N 42°24' W 082°48'7 7.5 250 / 181025.7 -10.1 0.5
2017-Jan-07 19:00N 42°30' W 082°42'1110.7 230 / 321026.0 -10.5 1.5
2017-Jan-07 18:00N 42°36' W 082°30'1212.0 240 / 111027.2 -11.0 1.2
2017-Jan-07 17:00N 42°48' W 082°30'1312.8 260 / 121027.6 -11.5 1.3
2017-Jan-07 16:00N 43°00' W 082°24'6 6.0 230 / 111027.9 -11.6 1.5
2017-Jan-07 15:00N 43°06' W 082°24'0 0.0 240 / 131027.9 -11.8 2.3
2017-Jan-07 14:00N 43°06' W 082°24'0 0.0 250 / 141027.6 -12.0 2.3
2017-Jan-07 13:00N 43°06' W 082°24'0 0.0 240 / 161027.2 -12.5 2.4
2017-Jan-07 12:00N 43°06' W 082°24'0 0.0 260 / 141026.9 -12.4 2.4
2017-Jan-07 11:00N 43°06' W 082°24'0 0.0 260 / 161026.5 -12.4 2.4
2017-Jan-07 10:00N 43°06' W 082°24'0 0.0 250 / 181026.5 -12.4 2.5
2017-Jan-07 09:00N 43°06' W 082°24'0 0.0 250 / 171026.5 -12.2 2.3
2017-Jan-07 08:00N 43°06' W 082°24'0 0.0 250 / 171026.5 -12.2 2.4
2017-Jan-07 07:00N 43°06' W 082°24'0 0.0 240 / 141025.9 -11.9 2.4
2017-Jan-07 06:00N 43°06' W 082°24'0 0.0 240 / 151025.5 -11.4 2.4
2017-Jan-07 05:00N 43°06' W 082°24'0 0.0 250 / 171025.5 -11.3 2.5
2017-Jan-07 04:00N 43°06' W 082°24'0 0.0 260 / 171024.5 -10.9 2.5
2017-Jan-07 03:00N 43°06' W 082°24'0 0.0 250 / 191024.2 -10.8 2.5
2017-Jan-07 02:00N 43°06' W 082°24'0 0.0 230 / 171024.2 -10.4 2.5
2017-Jan-07 01:00N 43°06' W 082°24'0 0.0 250 / 171024.2 -10.5 2.6
2017-Jan-07 00:00N 43°06' W 082°24'0 0.0 250 / 141023.8 -10.6 2.6
2017-Jan-06 23:00N 43°06' W 082°24'0 0.0 230 / 141023.2 -10.2 2.6
2017-Jan-06 22:00N 43°06' W 082°24'0 0.0 260 / 141022.1 -10.1 2.5
2017-Jan-06 21:00N 43°06' W 082°24'1212.0 270 / 111021.8 -10.4 2.4
2017-Jan-06 20:00N 43°18' W 082°24'1212.0 220 / 141020.1 -10.7 2.2
2017-Jan-06 19:00N 43°30' W 082°24'1312.8 270 / 161019.1 -10.3 1.2
2017-Jan-06 18:00N 43°42' W 082°30'1212.0 260 / 141018.8 -10.8 2.1
2017-Jan-06 17:00N 43°54' W 082°30'1312.8 240 / 201018.1 -10.7 3.6
2017-Jan-06 16:00N 44°06' W 082°36'1312.7 230 / 221016.7 -10.2 3.0
2017-Jan-06 15:00N 44°18' W 082°42'1312.7 260 / 181016.7 -9.7 3.4
2017-Jan-06 14:00N 44°30' W 082°48'1818.5 280 / 201015.7 -9.5 3.3
2017-Jan-06 13:00N 44°48' W 082°54'1312.7 270 / 201014.7 -9.5 3.0
2017-Jan-06 12:00N 45°00' W 083°00'1312.7 280 / 231014.0 -10.1 2.3
2017-Jan-06 11:00N 45°12' W 083°06'1514.7 270 / 231013.0 -9.6 3.7
2017-Jan-06 10:00N 45°24' W 083°18'1010.3 250 / 201012.0 -10.0 3.3
2017-Jan-06 09:00N 45°30' W 083°30'2713.5 280 / 231012.0 -8.6 3.4
2017-Jan-06 07:00N 45°54' W 083°48'1514.6 340 / 161011.3 -10.9 2.1
2017-Jan-06 06:00N 46°06' W 084°00'7 7.3 350 / 111011.0 -13.0 0.3
2017-Jan-06 05:00N 46°12' W 084°06'7 7.3 310 / 101010.6 -13.6 0.4
2017-Jan-06 04:00N 46°18' W 084°12'6 6.0 220 / 71009.9 -14.4 0.8
2017-Jan-06 03:00N 46°24' W 084°12'7 7.3 340 / 111008.6 -14.1 1.0
2017-Jan-06 02:00N 46°30' W 084°18'4 4.1 230 / 91008.9 -12.1 1.4
2017-Jan-06 01:00N 46°30' W 084°24'8 8.3 220 / 181008.5 -11.1 1.2
2017-Jan-06 00:00N 46°30' W 084°36'1010.2 240 / 191008.1 -11.9 1.8
2017-Jan-05 23:00N 46°36' W 084°48'1312.7 240 / 241006.4 -10.2 2.8
2017-Jan-05 22:00N 46°48' W 084°54'1312.7 270 / 241006.8 -8.9 2.2
2017-Jan-05 21:00N 47°00' W 085°00'1312.7 290 / 181006.8 -9.2 3.9
2017-Jan-05 20:00N 47°12' W 085°06'1818.5 340 / 131006.4 -10.4 4.5
2017-Jan-05 19:00N 47°30' W 085°12'7011.6 340 / 131006.4 -11.7 4.6
2017-Jan-05 13:00N 48°24' W 086°18'1414.4 340 / 131007.8 -17.2 4.4
2017-Jan-05 12:00N 48°36' W 086°30'10 9.9 290 / 111008.1 -19.7 4.2
2017-Jan-05 11:00N 48°42' W 086°42'1211.9 290 / 111008.1 -18.9 4.2
2017-Jan-05 10:00N 48°42' W 087°00'8 7.9 290 / 111008.5 -18.9 4.2
2017-Jan-05 09:00N 48°42' W 087°12'1211.9 270 / 111008.1 -17.8 4.3
2017-Jan-05 08:00N 48°42' W 087°30'1211.9 270 / 121008.8 -18.4 4.3
2017-Jan-05 07:00N 48°42' W 087°48'10 9.9 310 / 301008.8 -18.6 4.1
2017-Jan-05 06:00N 48°36' W 088°00'2010.0 330 / 201009.5 -19.0 4.0
2017-Jan-05 04:00N 48°24' W 088°24'1313.4 320 / 281009.8 -18.4 4.1
2017-Jan-05 03:00N 48°18' W 088°42'1010.0 320 / 271011.2 -18.0 4.0
2017-Jan-05 02:00N 48°12' W 088°54'1010.0 310 / 261012.2 -18.5 4.0
2017-Jan-05 01:00N 48°06' W 089°06'1010.0 320 / 331012.9 -20.0 4.0
2017-Jan-05 00:00N 48°00' W 089°18'1010.0 320 / 321013.2 -19.6 3.8
2017-Jan-04 23:00N 47°54' W 089°30'1313.5 320 / 261012.9 -18.1 4.0
2017-Jan-04 22:00N 47°48' W 089°48'1413.5 330 / 231012.9 -17.1 4.1
2017-Jan-04 21:00N 47°42' W 090°06'1413.5 310 / 201013.2 -16.7 4.1
2017-Jan-04 20:00N 47°36' W 090°24'1413.5 320 / 241012.9 -16.6 4.1
2017-Jan-04 19:00N 47°30' W 090°42'1010.1 300 / 231013.2 -17.4 3.9
2017-Jan-04 18:00N 47°24' W 090°54'1717.1 310 / 151014.6 -19.4 3.7
2017-Jan-04 17:00N 47°12' W 091°12'1010.1 270 / 161015.9 -20.7 3.7
2017-Jan-04 16:00N 47°06' W 091°24'1314.9 320 / 141016.9 -22.2 3.6
2017-Jan-04 15:07N 46°58' W 091°39'325.8
2017-Jan-04 15:00N 47°00' W 091°42'716.6 300 / 211017.6 -21.8 3.4
2017-Jan-04 14:32N 46°54' W 091°48'712.8
2017-Jan-04 14:00N 46°48' W 091°54'511.7 290 / 281016.9 -21.7 2.3
2017-Jan-04 13:33N 46°48' W 092°02'3 5.5
2017-Jan-04 13:00N 46°48' W 092°06'3 7.9 270 / 91017.9 -21.9 0.7
2017-Jan-04 12:33N 46°45' W 092°07'3 4.7
2017-Jan-04 12:00N 46°42' W 092°06'3 3.9 220 / 71018.3 -21.3 1.1
2017-Jan-04 11:19N 46°45' W 092°07'3 8.4
2017-Jan-04 11:00N 46°42' W 092°06'3 5.5 270 / 111017.6 -21.2 1.0
2017-Jan-04 10:31N 46°45' W 092°07'3 5.1
2017-Jan-04 10:00N 46°42' W 092°06'3 3.9 260 / 111017.6 -20.4 0.8
2017-Jan-04 09:19N 46°45' W 092°07'3 8.3
2017-Jan-04 09:00N 46°42' W 092°06'3 4.2 260 / 101017.6 -19.5 1.2
2017-Jan-04 08:22N 46°45' W 092°07'3 7.2
2017-Jan-04 08:00N 46°42' W 092°06'3 4.6 270 / 121017.3 -19.0 1.1
2017-Jan-04 07:25N 46°45' W 092°07'3 6.3
2017-Jan-04 07:00N 46°42' W 092°06'3 5.3 250 / 131016.9 -18.5 0.9
2017-Jan-04 06:25N 46°45' W 092°06'3 7.0
2017-Jan-04 06:00N 46°48' W 092°06'3 4.4 260 / 91016.6 -17.6 1.2
2017-Jan-04 05:25N 46°45' W 092°06'3 6.1
2017-Jan-04 05:00N 46°48' W 092°06'3 4.8 240 / 151015.9 -16.7 1.6
2017-Jan-04 04:28N 46°45' W 092°06'3 5.4
2017-Jan-04 04:00N 46°48' W 092°06'2 5.0 250 / 111015.9 -16.2 1.3
2017-Jan-04 03:33N 46°46' W 092°06'5 8.2
2017-Jan-04 03:00N 46°48' W 092°00'4 8.1 280 / 201014.2 -15.1 2.1
2017-Jan-04 02:33N 46°50' W 091°56'711.7
2017-Jan-04 02:00N 46°54' W 091°48'1010.2 280 / 201012.9 -12.8 3.5
2017-Jan-04 01:00N 47°00' W 091°36'1717.2 290 / 221011.2 -11.7 3.7
2017-Jan-04 00:00N 47°12' W 091°18'1010.1 270 / 241010.5 -11.2 4.0
2017-Jan-03 23:00N 47°18' W 091°06'1717.1 280 / 241009.5 -9.4 4.0
2017-Jan-03 22:00N 47°30' W 090°48'1010.1 280 / 231007.1 -6.8 4.0
2017-Jan-03 21:00N 47°36' W 090°36'1413.5 280 / 261005.8 -4.5 4.3
2017-Jan-03 20:00N 47°42' W 090°18'1212.1 280 / 171006.1 -1.1 4.2
2017-Jan-03 19:00N 47°42' W 090°00'1413.5 040 / 161007.1 -2.1 4.4
2017-Jan-03 18:00N 47°48' W 089°42'1413.5 020 / 221007.1 2.2 -1.0 4.1
2017-Jan-03 17:00N 47°42' W 089°24'1212.1 180 / 161008.8 0.9 4.1
2017-Jan-03 16:00N 47°42' W 089°06'1717.2 150 / 151009.8 1.3 4.0
2017-Jan-03 15:00N 47°36' W 088°42'1212.1 150 / 121010.5 1.8 4.0
2017-Jan-03 14:00N 47°36' W 088°24'1212.1 120 / 91010.8 1.8 4.0
2017-Jan-03 13:00N 47°36' W 088°06'1413.5 100 / 141011.2 1.7 4.0
2017-Jan-03 12:00N 47°30' W 087°48'1413.6 160 / 81013.2 1.6 2.0
2017-Jan-03 11:00N 47°24' W 087°30'1212.2 110 / 131013.2 1.9 3.7
2017-Jan-03 10:00N 47°24' W 087°12'1413.6 100 / 141014.2 1.8 4.2
2017-Jan-03 09:00N 47°18' W 086°54'1413.6 110 / 181014.9 1.6 4.2
2017-Jan-03 08:00N 47°12' W 086°36'5213.1 100 / 181015.9 1.4 4.2
2017-Jan-03 04:00N 46°54' W 085°24'1413.7 090 / 191019.0 0.6 3.0
2017-Jan-03 03:00N 46°48' W 085°06'1413.7 080 / 161020.3 0.8 2.4
2017-Jan-03 02:00N 46°42' W 084°48'1514.6 060 / 131020.3 0.8 3.3
2017-Jan-03 01:00N 46°30' W 084°36'8 8.3 100 / 121020.7 0.8 2.9
2017-Jan-03 00:00N 46°30' W 084°24'4 4.1 080 / 131021.0 0.7 2.3
2017-Jan-02 23:00N 46°30' W 084°18'0 0.0 080 / 71022.5 1.0 2.0
2017-Jan-02 22:00N 46°30' W 084°18'7 7.3 070 / 71022.8 1.0 2.1
2017-Jan-02 21:00N 46°24' W 084°12'7 7.3 100 / 111022.8 1.0 1.9
2017-Jan-02 20:00N 46°18' W 084°06'1312.7 080 / 91023.5 0.8 1.5
2017-Jan-02 19:00N 46°06' W 084°00'7 7.3 080 / 201023.5 0.5 0.7
2017-Jan-02 18:00N 46°00' W 083°54'1312.7 060 / 141023.2 0.5 0.7
2017-Jan-02 17:00N 45°48' W 083°48'1514.6 070 / 181024.5 1.5 3.5
2017-Jan-02 16:00N 45°36' W 083°36'1514.7 060 / 201025.2 1.4 3.6
2017-Jan-02 15:00N 45°24' W 083°24'1010.3 080 / 161024.8 2.9 3.5
2017-Jan-02 14:00N 45°18' W 083°12'1312.7 100 / 141025.5 3.1 3.0
2017-Jan-02 13:00N 45°06' W 083°06'5714.2 090 / 101024.8 2.9 2.7
2017-Jan-02 09:00N 44°12' W 082°42'1312.8 200 / 101024.5 1.7 4.0
2017-Jan-02 08:00N 44°00' W 082°36'1312.8 190 / 81024.8 1.2 3.1
2017-Jan-02 07:00N 43°48' W 082°30'1212.0 220 / 41023.8 1.0 1.6
2017-Jan-02 06:00N 43°36' W 082°30'1212.0 220 / 41023.8 1.0 1.8
2017-Jan-02 05:00N 43°24' W 082°30'1918.5 230 / 81024.2 1.3 2.7
2017-Jan-02 04:00N 43°06' W 082°24'6 6.0 180 / 61023.8 1.3 3.3
2017-Jan-02 03:00N 43°00' W 082°24'1312.8 030 / 21023.5 0.1 3.2
2017-Jan-02 02:00N 42°48' W 082°30'6 6.0 170 / 21024.2 -0.4 3.2
2017-Jan-02 01:00N 42°42' W 082°30'1312.8 120 / 11023.8 -0.4 3.1
2017-Jan-02 00:00N 42°30' W 082°36'1110.7 150 / 131023.3 1.7 3.1
2017-Jan-01 23:00N 42°24' W 082°48'1110.7 140 / 71022.3 1.6 2.4
2017-Jan-01 22:00N 42°18' W 083°00'7 7.5 130 / 41021.9 2.4 1.2
2017-Jan-01 21:00N 42°12' W 083°06'4 4.4 160 / 111021.9 2.0 2.2
2017-Jan-01 20:00N 42°12' W 083°12'6 6.0 170 / 111021.3 2.5 2.3
2017-Jan-01 19:00N 42°06' W 083°12'0 0.0 160 / 171020.6 1.4 2.4
2017-Jan-01 18:00N 42°06' W 083°12'0 0.0 150 / 111019.9 1.6 2.4
2017-Jan-01 17:00N 42°06' W 083°12'0 0.0 250 / 61020.9 2.2 2.3
2017-Jan-01 16:00N 42°06' W 083°12'0 0.0 180 / 41021.9 2.0 2.3
2017-Jan-01 15:00N 42°06' W 083°12'0 0.0 240 / 61021.6 -0.0 2.3
2017-Jan-01 14:00N 42°06' W 083°12'0 0.0 210 / 61020.9 -1.7 2.3
2017-Jan-01 13:00N 42°06' W 083°12'0 0.0 190 / 31019.9 -2.1 2.3
2017-Jan-01 12:00N 42°06' W 083°12'7 7.5 210 / 81018.6 -1.9 2.1
2017-Jan-01 11:00N 42°12' W 083°06'6 6.0 200 / 71017.5 -2.3 2.3
2017-Jan-01 10:00N 42°18' W 083°06'1110.7 220 / 111016.5 -0.7 1.8
2017-Jan-01 09:00N 42°24' W 082°54'1110.7 230 / 61015.5 -1.2 2.4
2017-Jan-01 08:00N 42°30' W 082°42'1110.7 260 / 181014.2 -0.4 2.9
2017-Jan-01 07:00N 42°36' W 082°30'1212.0 260 / 91014.3 -0.3 3.2
2017-Jan-01 06:00N 42°48' W 082°30'6 6.0 310 / 121013.0 -0.2 3.1
2017-Jan-01 05:00N 42°54' W 082°30'1312.8 280 / 81011.3 -0.0 3.4
2017-Jan-01 04:00N 43°06' W 082°24'1212.0 280 / 171009.6 0.3 3.5
2017-Jan-01 03:00N 43°18' W 082°24'1312.8 270 / 201008.3 0.4 3.4
2017-Jan-01 02:00N 43°30' W 082°30'1212.0 270 / 241006.6 0.4 2.4
2017-Jan-01 01:00N 43°42' W 082°30'1312.8 260 / 251004.2 0.4 1.9
2017-Jan-01 00:00N 43°54' W 082°36'1514.8 260 / 231002.5 1.0 3.5
2016-Dec-31 23:00N 44°06' W 082°48'1010.5 260 / 281001.5 1.5 4.0
2016-Dec-31 22:00N 44°12' W 083°00'1514.8 270 / 261000.1 1.5 4.1
2016-Dec-31 21:00N 44°24' W 083°12'1212.0 260 / 25997.4 1.7 3.8
2016-Dec-31 20:00N 44°36' W 083°12'1312.7 240 / 16996.7 1.6 3.1
2016-Dec-31 19:00N 44°48' W 083°06'   220 / 11996.1 0.9 2.9

Dump ship's entire track history